createdAt,value
2024-01-31T00:01:37.600Z,12.20
2024-01-31T00:04:06.133Z,13.67
2024-01-31T00:06:34.257Z,9.37
2024-01-31T00:09:02.251Z,7.97
2024-01-31T00:11:30.759Z,7.47
2024-01-31T00:13:58.959Z,9.87
2024-01-31T00:16:27.069Z,6.67
2024-01-31T00:18:56.497Z,6.77
2024-01-31T00:21:26.988Z,7.83
2024-01-31T00:23:56.331Z,8.53
2024-01-31T00:26:24.216Z,7.43
2024-01-31T00:28:52.133Z,9.07
2024-01-31T00:31:20.182Z,9.83
2024-01-31T00:33:48.581Z,5.93
2024-01-31T00:36:17.982Z,6.70
2024-01-31T00:38:45.912Z,6.33
2024-01-31T00:41:13.842Z,9.57
2024-01-31T00:43:42.300Z,6.13
2024-01-31T00:46:13.324Z,8.30
2024-01-31T00:48:42.878Z,5.70
2024-01-31T00:51:12.455Z,7.00
2024-01-31T00:53:41.861Z,8.10
2024-01-31T00:56:10.788Z,7.13
2024-01-31T00:58:38.972Z,9.33
2024-01-31T01:01:07.051Z,7.43
2024-01-31T01:03:35.117Z,7.47
2024-01-31T01:06:05.843Z,5.17
2024-01-31T01:08:34.154Z,8.80
2024-01-31T01:11:03.628Z,8.90
2024-01-31T01:13:31.531Z,7.60
2024-01-31T01:15:59.456Z,7.40
2024-01-31T01:18:27.454Z,7.53
2024-01-31T01:20:55.378Z,8.23
2024-01-31T01:23:23.345Z,7.83
2024-01-31T01:25:51.321Z,8.03
2024-01-31T01:28:20.712Z,8.60
2024-01-31T01:30:48.723Z,9.13
2024-01-31T01:33:16.674Z,8.83
2024-01-31T01:35:44.786Z,7.33
2024-01-31T01:38:12.793Z,8.47
2024-01-31T01:40:45.500Z,7.70
2024-01-31T01:43:18.536Z,7.57
2024-01-31T01:45:48.055Z,8.60
2024-01-31T01:48:17.794Z,8.97
2024-01-31T01:50:52.334Z,6.40
2024-01-31T01:53:20.276Z,11.57
2024-01-31T01:55:48.543Z,7.97
2024-01-31T01:58:16.642Z,10.10
2024-01-31T02:00:46.795Z,7.97
2024-01-31T02:03:19.121Z,7.57
2024-01-31T02:05:48.181Z,8.47
2024-01-31T02:08:16.559Z,8.90
2024-01-31T02:10:45.054Z,8.03
2024-01-31T02:13:13.081Z,9.73
2024-01-31T02:15:41.022Z,8.63
2024-01-31T02:18:09.242Z,7.90
2024-01-31T02:20:38.655Z,8.23
2024-01-31T02:23:08.144Z,9.43
2024-01-31T02:25:36.105Z,7.57
2024-01-31T02:28:04.211Z,9.13
2024-01-31T02:30:32.182Z,10.33
2024-01-31T02:33:00.199Z,7.80
2024-01-31T02:35:28.219Z,7.47
2024-01-31T02:37:58.661Z,6.90
2024-01-31T02:40:27.981Z,7.87
2024-01-31T02:42:55.911Z,7.03
2024-01-31T02:45:23.865Z,10.40
2024-01-31T02:47:51.847Z,6.17
2024-01-31T02:50:19.932Z,8.20
2024-01-31T02:52:47.871Z,7.93
2024-01-31T02:55:15.935Z,6.87
2024-01-31T02:57:45.330Z,8.77
2024-01-31T03:00:14.840Z,7.17
2024-01-31T03:02:44.833Z,6.90
2024-01-31T03:05:14.087Z,7.40
2024-01-31T03:07:42.741Z,7.97
2024-01-31T03:10:11.836Z,7.93
2024-01-31T03:12:39.992Z,7.20
2024-01-31T03:15:09.893Z,7.50
2024-01-31T03:17:38.348Z,7.57
2024-01-31T03:20:07.841Z,10.60
2024-01-31T03:22:36.792Z,9.47
2024-01-31T03:25:05.742Z,7.90
2024-01-31T03:27:33.934Z,7.77
2024-01-31T03:30:08.778Z,9.77
2024-01-31T03:32:39.873Z,8.47
2024-01-31T03:35:09.032Z,7.77
2024-01-31T03:37:37.286Z,8.63
2024-01-31T03:40:06.908Z,8.13
2024-01-31T03:42:34.837Z,7.60
2024-01-31T03:45:05.112Z,6.87
2024-01-31T03:47:35.288Z,7.10
2024-01-31T03:50:06.513Z,6.50
2024-01-31T03:52:36.913Z,7.60
2024-01-31T03:55:05.662Z,7.00
2024-01-31T03:57:33.724Z,9.03
2024-01-31T04:00:06.462Z,7.17
2024-01-31T04:02:35.097Z,6.73
2024-01-31T04:05:03.512Z,8.33
2024-01-31T04:07:33.080Z,6.97
2024-01-31T04:10:01.059Z,6.80
2024-01-31T04:12:29.215Z,6.43
2024-01-31T04:14:57.189Z,6.57
2024-01-31T04:17:25.081Z,6.73
2024-01-31T04:19:53.217Z,6.17
2024-01-31T04:22:21.284Z,5.40
2024-01-31T04:24:51.019Z,6.57
2024-01-31T04:27:19.092Z,6.80
2024-01-31T04:29:47.118Z,7.83
2024-01-31T04:32:15.604Z,6.50
2024-01-31T04:34:43.607Z,7.20
2024-01-31T04:37:11.620Z,9.20
2024-01-31T04:39:39.571Z,6.30
2024-01-31T04:42:08.925Z,7.50
2024-01-31T04:44:37.062Z,6.90
2024-01-31T04:47:05.170Z,7.43
2024-01-31T04:49:33.206Z,9.80
2024-01-31T04:52:01.299Z,7.10
2024-01-31T04:54:29.538Z,7.63
2024-01-31T04:56:57.458Z,6.87
2024-01-31T04:59:26.777Z,7.03
2024-01-31T05:01:55.405Z,7.60
2024-01-31T05:04:23.869Z,7.57
2024-01-31T05:06:52.305Z,7.03
2024-01-31T05:09:20.594Z,8.30
2024-01-31T05:11:49.929Z,7.40
2024-01-31T05:14:17.987Z,9.57
2024-01-31T05:16:47.292Z,6.43
2024-01-31T05:19:15.515Z,7.87
2024-01-31T05:21:46.313Z,8.30
2024-01-31T05:24:14.409Z,7.00
2024-01-31T05:26:42.594Z,9.27
2024-01-31T05:29:10.946Z,7.07
2024-01-31T05:31:38.911Z,7.47
2024-01-31T05:34:08.384Z,7.53
2024-01-31T05:36:36.438Z,7.47
2024-01-31T05:39:04.717Z,7.87
2024-01-31T05:41:32.797Z,7.30
2024-01-31T05:44:00.960Z,8.40
2024-01-31T05:46:29.549Z,5.53
2024-01-31T05:48:59.070Z,7.57
2024-01-31T05:51:28.563Z,8.30
2024-01-31T05:53:56.550Z,6.73
2024-01-31T05:56:24.882Z,6.37
2024-01-31T05:58:52.869Z,7.77
2024-01-31T06:01:21.036Z,8.77
2024-01-31T06:03:49.106Z,7.40
2024-01-31T06:06:17.077Z,8.90
2024-01-31T06:08:46.442Z,7.70
2024-01-31T06:11:14.383Z,5.93
2024-01-31T06:13:42.458Z,10.87
2024-01-31T06:16:11.603Z,10.30
2024-01-31T06:18:39.606Z,7.97
2024-01-31T06:21:07.913Z,9.70
2024-01-31T06:23:35.980Z,9.83
2024-01-31T06:26:05.676Z,10.37
2024-01-31T06:28:39.388Z,12.33
2024-01-31T06:31:15.773Z,9.97
2024-01-31T06:33:44.048Z,12.37
2024-01-31T06:36:12.124Z,13.00
2024-01-31T06:38:40.045Z,12.20
2024-01-31T06:41:09.534Z,11.33
2024-01-31T06:43:37.486Z,15.87
2024-01-31T06:46:05.791Z,12.40
2024-01-31T06:48:33.834Z,12.37
2024-01-31T06:51:01.877Z,12.63
2024-01-31T06:53:30.372Z,12.10
2024-01-31T06:56:00.810Z,15.67
2024-01-31T06:58:30.286Z,15.57
2024-01-31T07:01:01.333Z,12.57
2024-01-31T07:03:30.620Z,11.10
2024-01-31T07:05:58.553Z,17.10
2024-01-31T07:08:26.532Z,13.67
2024-01-31T07:10:54.567Z,14.30
2024-01-31T07:13:22.644Z,11.70
2024-01-31T07:15:52.078Z,10.20
2024-01-31T07:18:20.234Z,11.63
2024-01-31T07:20:48.170Z,12.63
2024-01-31T07:23:16.125Z,11.17
2024-01-31T07:25:44.201Z,14.57
2024-01-31T07:28:12.217Z,12.00
2024-01-31T07:30:40.156Z,16.47
2024-01-31T07:33:09.650Z,11.73
2024-01-31T07:35:37.690Z,14.30
2024-01-31T07:38:05.945Z,15.10
2024-01-31T07:40:34.035Z,11.27
2024-01-31T07:43:02.083Z,12.97
2024-01-31T07:45:30.053Z,13.67
2024-01-31T07:47:58.524Z,18.07
2024-01-31T07:50:30.931Z,14.43
2024-01-31T07:53:00.765Z,16.13
2024-01-31T07:55:29.332Z,14.90
2024-01-31T07:57:57.309Z,14.93
2024-01-31T08:00:25.368Z,12.67
2024-01-31T08:02:53.259Z,15.57
2024-01-31T08:05:21.219Z,11.70
2024-01-31T08:07:50.646Z,14.40
2024-01-31T08:10:18.772Z,16.07
2024-01-31T08:12:48.093Z,13.90
2024-01-31T08:15:16.568Z,12.33
2024-01-31T08:17:44.513Z,12.03
2024-01-31T08:20:13.275Z,12.73
2024-01-31T08:22:41.922Z,10.80
2024-01-31T08:25:12.895Z,12.47
2024-01-31T08:27:40.953Z,10.27
2024-01-31T08:30:10.118Z,13.80
2024-01-31T08:32:38.385Z,16.70
2024-01-31T08:35:07.377Z,19.43
2024-01-31T08:37:35.388Z,15.93
2024-01-31T08:40:04.429Z,15.10
2024-01-31T08:42:34.522Z,17.73
2024-01-31T08:45:02.686Z,13.93
2024-01-31T08:47:30.805Z,15.70
2024-01-31T08:49:59.142Z,19.47
2024-01-31T08:52:27.140Z,16.50
2024-01-31T08:54:55.141Z,19.40
2024-01-31T08:57:23.258Z,20.07
2024-01-31T08:59:52.592Z,18.53
2024-01-31T09:02:20.873Z,18.73
2024-01-31T09:04:49.208Z,14.87
2024-01-31T09:07:17.541Z,16.80
2024-01-31T09:09:45.539Z,16.27
2024-01-31T09:12:13.989Z,14.93
2024-01-31T09:14:41.926Z,17.00
2024-01-31T09:17:11.248Z,16.37
2024-01-31T09:19:39.236Z,15.47
2024-01-31T09:22:08.005Z,16.23
2024-01-31T09:24:36.077Z,18.87
2024-01-31T09:27:04.393Z,15.40
2024-01-31T09:29:32.284Z,32.93
2024-01-31T09:32:03.966Z,17.17
2024-01-31T09:34:34.289Z,17.03
2024-01-31T09:37:02.567Z,16.77
2024-01-31T09:39:32.181Z,16.60
2024-01-31T09:42:00.206Z,17.50
2024-01-31T09:44:29.492Z,16.13
2024-01-31T09:46:59.354Z,17.43
2024-01-31T09:49:27.671Z,18.60
2024-01-31T09:52:01.393Z,17.07
2024-01-31T09:54:31.152Z,22.77
2024-01-31T09:56:59.847Z,18.33
2024-01-31T09:59:27.948Z,16.03
2024-01-31T10:01:58.101Z,19.80
2024-01-31T10:04:26.153Z,21.40
2024-01-31T10:06:54.697Z,16.97
2024-01-31T10:09:24.076Z,18.93
2024-01-31T10:11:52.087Z,17.63
2024-01-31T10:14:19.991Z,20.20
2024-01-31T10:16:48.081Z,17.90
2024-01-31T10:19:16.540Z,16.20
2024-01-31T10:21:44.694Z,19.77
2024-01-31T10:24:17.651Z,17.17
2024-01-31T10:26:47.241Z,15.23
2024-01-31T10:29:16.029Z,17.57
2024-01-31T10:31:47.580Z,17.80
2024-01-31T10:34:18.413Z,16.77
2024-01-31T10:37:28.095Z,16.20
2024-01-31T10:39:39.159Z,16.33
2024-01-31T10:42:09.337Z,19.07
2024-01-31T10:44:40.405Z,16.40
2024-01-31T10:47:09.917Z,16.00
2024-01-31T10:49:37.967Z,17.73
2024-01-31T10:52:08.728Z,17.30
2024-01-31T10:54:41.787Z,18.47
2024-01-31T10:57:12.435Z,16.27
2024-01-31T10:59:41.293Z,15.50
2024-01-31T11:02:15.395Z,15.90
2024-01-31T11:04:44.434Z,17.20
2024-01-31T11:07:19.441Z,16.33
2024-01-31T11:09:48.034Z,17.17
2024-01-31T11:12:18.672Z,18.40
2024-01-31T11:14:48.906Z,17.67
2024-01-31T11:17:22.074Z,17.70
2024-01-31T11:19:51.812Z,17.37
2024-01-31T11:22:20.327Z,15.63
2024-01-31T11:24:49.750Z,18.83
2024-01-31T11:27:21.101Z,16.87
2024-01-31T11:29:52.247Z,15.80
2024-01-31T11:32:21.078Z,19.67
2024-01-31T11:35:00.014Z,17.50
2024-01-31T11:37:30.832Z,19.30
2024-01-31T11:39:59.090Z,19.27
2024-01-31T11:42:28.984Z,17.97
2024-01-31T11:44:57.154Z,17.60
2024-01-31T11:47:25.350Z,17.67
2024-01-31T11:49:53.471Z,16.50
2024-01-31T11:52:21.612Z,16.70
2024-01-31T11:54:49.684Z,17.80
2024-01-31T11:57:17.562Z,23.83
2024-01-31T11:59:47.717Z,15.53
2024-01-31T12:02:15.856Z,16.37
2024-01-31T12:04:53.100Z,16.57
2024-01-31T12:07:21.208Z,16.87
2024-01-31T12:09:49.456Z,15.77
2024-01-31T12:12:17.791Z,19.07
2024-01-31T12:14:47.469Z,21.07
2024-01-31T12:17:23.845Z,20.97
2024-01-31T12:20:04.424Z,16.40
2024-01-31T12:22:32.736Z,23.70
2024-01-31T12:25:00.768Z,18.17
2024-01-31T12:27:28.776Z,17.90
2024-01-31T12:29:58.505Z,18.77
2024-01-31T12:32:27.320Z,18.80
2024-01-31T12:34:55.938Z,16.53
2024-01-31T12:37:24.186Z,18.20
2024-01-31T12:39:53.806Z,17.07
2024-01-31T12:42:22.413Z,18.33
2024-01-31T12:44:50.899Z,15.83
2024-01-31T12:47:20.235Z,19.67
2024-01-31T12:49:48.287Z,19.10
2024-01-31T12:52:16.445Z,21.37
2024-01-31T12:54:44.381Z,16.83
2024-01-31T12:57:12.393Z,20.70
2024-01-31T12:59:40.414Z,20.07
2024-01-31T13:02:08.563Z,19.17
2024-01-31T13:04:37.955Z,18.97
2024-01-31T13:07:07.000Z,16.27
2024-01-31T13:09:35.187Z,19.20
2024-01-31T13:12:03.226Z,14.90
2024-01-31T13:14:31.782Z,16.30
2024-01-31T13:17:02.622Z,16.33
2024-01-31T13:19:31.470Z,19.73
2024-01-31T13:22:00.945Z,15.83
2024-01-31T13:24:29.016Z,19.57
2024-01-31T13:26:57.094Z,19.10
2024-01-31T13:29:26.342Z,16.47
2024-01-31T13:31:55.218Z,16.97
2024-01-31T13:34:23.338Z,17.43
2024-01-31T13:36:52.964Z,18.83
2024-01-31T13:39:23.348Z,20.73
2024-01-31T13:41:51.357Z,18.53
2024-01-31T13:44:19.289Z,16.67
2024-01-31T13:46:47.369Z,18.20
2024-01-31T13:49:15.366Z,16.27
2024-01-31T13:51:44.621Z,20.37
2024-01-31T13:54:12.727Z,19.87
2024-01-31T13:56:42.151Z,18.23
2024-01-31T13:59:10.400Z,16.37
2024-01-31T14:01:38.409Z,17.70
2024-01-31T14:04:07.514Z,19.30
2024-01-31T14:06:35.599Z,13.20
2024-01-31T14:09:03.747Z,17.30
2024-01-31T14:11:31.830Z,22.90
2024-01-31T14:14:01.326Z,23.07
2024-01-31T14:16:29.303Z,21.57
2024-01-31T14:18:57.316Z,16.60
2024-01-31T14:21:25.253Z,20.37
2024-01-31T14:24:00.759Z,18.80
2024-01-31T14:26:33.118Z,16.87
2024-01-31T14:29:02.469Z,22.63
2024-01-31T14:31:30.421Z,18.37
2024-01-31T14:33:58.462Z,20.77
2024-01-31T14:36:27.173Z,20.33
2024-01-31T14:38:55.209Z,21.47
2024-01-31T14:41:23.185Z,17.73
2024-01-31T14:43:51.274Z,19.53
2024-01-31T14:46:20.647Z,20.37
2024-01-31T14:48:48.773Z,15.63
2024-01-31T14:51:16.892Z,24.33
2024-01-31T14:53:44.943Z,26.13
2024-01-31T14:56:14.837Z,17.70
2024-01-31T14:58:42.741Z,18.17
2024-01-31T15:01:11.670Z,18.07
2024-01-31T15:03:41.057Z,17.57
2024-01-31T15:06:09.152Z,18.53
2024-01-31T15:08:38.444Z,20.30
2024-01-31T15:11:06.550Z,19.27
2024-01-31T15:13:34.446Z,22.57
2024-01-31T15:16:02.430Z,21.73
2024-01-31T15:18:30.501Z,20.40
2024-01-31T15:20:59.900Z,18.53
2024-01-31T15:23:28.158Z,19.13
2024-01-31T15:25:56.090Z,20.93
2024-01-31T15:28:24.232Z,20.93
2024-01-31T15:30:52.165Z,22.03
2024-01-31T15:33:20.297Z,20.27
2024-01-31T15:35:48.457Z,18.70
2024-01-31T15:38:17.788Z,22.20
2024-01-31T15:40:45.867Z,20.13
2024-01-31T15:43:13.974Z,21.37
2024-01-31T15:45:41.929Z,20.53
2024-01-31T15:48:10.634Z,21.83
2024-01-31T15:50:39.259Z,21.47
2024-01-31T15:53:07.262Z,22.80
2024-01-31T15:55:38.590Z,24.60
2024-01-31T15:58:06.579Z,18.10
2024-01-31T16:00:35.076Z,21.43
2024-01-31T16:03:03.125Z,23.93
2024-01-31T16:05:31.254Z,21.57
2024-01-31T16:07:59.155Z,19.70
2024-01-31T16:10:29.940Z,21.70
2024-01-31T16:12:59.284Z,21.80
2024-01-31T16:15:27.251Z,20.70
2024-01-31T16:17:55.310Z,22.80
2024-01-31T16:20:23.754Z,23.87
2024-01-31T16:22:51.999Z,19.03
2024-01-31T16:25:19.976Z,21.13
2024-01-31T16:27:47.927Z,20.83
2024-01-31T16:30:17.975Z,20.23
2024-01-31T16:32:46.252Z,22.13
2024-01-31T16:35:14.567Z,21.43
2024-01-31T16:37:42.541Z,18.80
2024-01-31T16:40:11.565Z,22.13
2024-01-31T16:42:40.069Z,18.70
2024-01-31T16:45:11.537Z,20.87
2024-01-31T16:47:42.875Z,18.57
2024-01-31T16:50:12.606Z,16.93
2024-01-31T16:52:40.488Z,12.60
2024-01-31T16:55:09.185Z,14.97
2024-01-31T16:57:38.533Z,19.27
2024-01-31T17:00:08.329Z,19.70
2024-01-31T17:02:36.447Z,19.40
2024-01-31T17:05:06.472Z,16.70
2024-01-31T17:07:34.444Z,18.87
2024-01-31T17:10:02.329Z,17.40
2024-01-31T17:12:31.859Z,22.57
2024-01-31T17:14:59.809Z,15.07
2024-01-31T17:17:27.817Z,17.57
2024-01-31T17:19:55.781Z,16.70
2024-01-31T17:22:25.113Z,16.53
2024-01-31T17:24:54.363Z,20.33
2024-01-31T17:27:22.324Z,21.83
2024-01-31T17:29:50.673Z,21.50
2024-01-31T17:32:18.632Z,18.33
2024-01-31T17:34:46.734Z,21.90
2024-01-31T17:37:14.766Z,21.23
2024-01-31T17:39:44.033Z,20.60
2024-01-31T17:42:12.121Z,20.07
2024-01-31T17:44:40.065Z,16.57
2024-01-31T17:47:08.891Z,20.90
2024-01-31T17:49:37.003Z,20.57
2024-01-31T17:52:07.327Z,23.60
2024-01-31T17:54:35.254Z,18.43
2024-01-31T17:57:04.798Z,18.30
2024-01-31T17:59:32.773Z,15.83
2024-01-31T18:02:01.116Z,19.60
2024-01-31T18:04:29.591Z,16.43
2024-01-31T18:06:57.561Z,15.03
2024-01-31T18:09:25.538Z,16.33
2024-01-31T18:11:53.520Z,18.20
2024-01-31T18:14:22.776Z,21.30
2024-01-31T18:16:50.719Z,16.37
2024-01-31T18:19:18.683Z,19.23
2024-01-31T18:21:46.725Z,20.60
2024-01-31T18:24:14.872Z,16.80
2024-01-31T18:26:42.846Z,14.93
2024-01-31T18:29:11.069Z,21.80
2024-01-31T18:31:44.250Z,18.40
2024-01-31T18:34:12.459Z,22.67
2024-01-31T18:36:41.811Z,18.63
2024-01-31T18:39:11.542Z,29.77
2024-01-31T18:41:42.793Z,25.13
2024-01-31T18:44:10.744Z,21.80
2024-01-31T18:46:39.344Z,20.47
2024-01-31T18:49:09.706Z,21.37
2024-01-31T18:51:42.875Z,21.63
2024-01-31T18:54:11.022Z,17.87
2024-01-31T18:56:39.542Z,17.57
2024-01-31T18:59:09.186Z,15.93
2024-01-31T19:01:37.158Z,16.07
2024-01-31T19:04:05.232Z,18.53
2024-01-31T19:06:34.741Z,22.63
2024-01-31T19:09:03.012Z,18.17
2024-01-31T19:11:31.045Z,19.10
2024-01-31T19:14:00.389Z,22.10
2024-01-31T19:16:28.410Z,22.50
2024-01-31T19:18:57.419Z,16.17
2024-01-31T19:21:26.125Z,19.20
2024-01-31T19:23:55.547Z,19.47
2024-01-31T19:26:24.816Z,17.17
2024-01-31T19:28:52.806Z,15.40
2024-01-31T19:31:22.102Z,15.23
2024-01-31T19:33:50.207Z,14.70
2024-01-31T19:36:19.617Z,14.03
2024-01-31T19:38:47.628Z,18.77
2024-01-31T19:41:17.164Z,14.57
2024-01-31T19:43:47.311Z,16.13
2024-01-31T19:46:18.935Z,15.03
2024-01-31T19:48:47.278Z,16.10
2024-01-31T19:51:15.432Z,14.27
2024-01-31T19:53:50.460Z,12.73
2024-01-31T19:56:20.765Z,13.83
2024-01-31T19:58:48.943Z,12.37
2024-01-31T20:01:17.713Z,12.87
2024-01-31T20:03:45.713Z,13.40
2024-01-31T20:06:13.747Z,14.00
2024-01-31T20:08:41.796Z,12.03
2024-01-31T20:11:14.292Z,12.90
2024-01-31T20:13:43.553Z,11.07
2024-01-31T20:16:15.847Z,11.53
2024-01-31T20:18:45.554Z,11.97
2024-01-31T20:21:14.122Z,11.07
2024-01-31T20:23:42.265Z,10.13
2024-01-31T20:26:11.078Z,10.50
2024-01-31T20:28:39.107Z,8.73
2024-01-31T20:31:10.542Z,9.77
2024-01-31T20:33:38.689Z,7.50
2024-01-31T20:36:07.531Z,9.30
2024-01-31T20:38:35.711Z,10.03
2024-01-31T20:41:03.673Z,9.80
2024-01-31T20:43:31.574Z,9.43
2024-01-31T20:45:59.493Z,5.97
2024-01-31T20:48:37.292Z,8.90
2024-01-31T20:51:08.897Z,6.83
2024-01-31T20:53:36.880Z,7.30
2024-01-31T20:56:05.438Z,8.13
2024-01-31T20:58:33.907Z,9.40
2024-01-31T21:01:03.178Z,9.60
2024-01-31T21:03:32.549Z,10.40
2024-01-31T21:06:00.532Z,8.13
2024-01-31T21:08:28.573Z,8.00
2024-01-31T21:10:59.151Z,7.30
2024-01-31T21:13:27.553Z,6.50
2024-01-31T21:15:55.509Z,8.40
2024-01-31T21:18:23.633Z,5.83
2024-01-31T21:20:53.388Z,8.17
2024-01-31T21:23:21.752Z,7.70
2024-01-31T21:25:49.795Z,7.43
2024-01-31T21:28:20.519Z,7.73
2024-01-31T21:30:51.167Z,9.30
2024-01-31T21:33:20.275Z,6.20
2024-01-31T21:35:50.314Z,8.37
2024-01-31T21:38:19.548Z,8.07
2024-01-31T21:40:47.779Z,6.37
2024-01-31T21:43:15.703Z,6.30
2024-01-31T21:45:43.794Z,5.77
2024-01-31T21:48:11.892Z,6.17
2024-01-31T21:50:39.934Z,8.33
2024-01-31T21:53:07.848Z,7.67
2024-01-31T21:55:37.848Z,6.33
2024-01-31T21:58:05.962Z,6.10
2024-01-31T22:00:33.975Z,5.33
2024-01-31T22:03:02.227Z,7.87
2024-01-31T22:05:30.406Z,6.90
2024-01-31T22:07:58.430Z,7.93
2024-01-31T22:10:26.784Z,6.30
2024-01-31T22:12:56.067Z,6.17
2024-01-31T22:15:24.096Z,9.50
2024-01-31T22:17:52.221Z,5.30
2024-01-31T22:20:20.790Z,6.83
2024-01-31T22:22:49.461Z,7.17
2024-01-31T22:25:17.880Z,7.27
2024-01-31T22:27:46.667Z,5.83
2024-01-31T22:30:17.031Z,4.77
2024-01-31T22:32:45.561Z,8.17
2024-01-31T22:35:13.693Z,6.73
2024-01-31T22:37:41.679Z,5.57
2024-01-31T22:40:10.712Z,5.80
2024-01-31T22:42:39.370Z,6.43
2024-01-31T22:45:08.084Z,4.70
2024-01-31T22:47:37.891Z,7.80
2024-01-31T22:50:06.696Z,4.77
2024-01-31T22:52:34.921Z,4.40
2024-01-31T22:55:02.915Z,6.00
2024-01-31T22:57:31.123Z,6.27
2024-01-31T22:59:59.204Z,8.07
2024-01-31T23:02:27.622Z,6.43
2024-01-31T23:04:57.407Z,9.10
2024-01-31T23:07:25.495Z,5.47
2024-01-31T23:09:54.085Z,5.30
2024-01-31T23:12:22.951Z,5.70
2024-01-31T23:14:51.109Z,8.20
2024-01-31T23:17:20.027Z,4.37
2024-01-31T23:19:47.995Z,6.47
2024-01-31T23:22:17.299Z,6.93
2024-01-31T23:24:45.439Z,5.27
2024-01-31T23:27:13.379Z,4.77
2024-01-31T23:29:41.418Z,7.90
2024-01-31T23:32:09.489Z,5.63
2024-01-31T23:34:37.483Z,6.93
2024-01-31T23:37:05.865Z,4.30
2024-01-31T23:39:35.283Z,6.60
2024-01-31T23:42:03.338Z,8.27
2024-01-31T23:44:31.355Z,4.70
2024-01-31T23:46:59.418Z,6.30
2024-01-31T23:49:27.978Z,10.80
2024-01-31T23:51:55.985Z,6.50
2024-01-31T23:54:23.987Z,5.37
2024-01-31T23:56:53.378Z,5.30
2024-01-31T23:59:21.444Z,6.03
